createdAt,value
2023-04-18T09:26:30.945Z,103057.19
2023-04-18T09:30:09.522Z,103057.47
2023-04-18T09:33:31.117Z,103056.84
2023-04-18T09:36:24.113Z,103051.94
2023-04-18T09:45:39.853Z,103057.03
2023-04-18T09:48:18.055Z,103056.66
2023-04-18T09:51:04.235Z,103061.69
2023-04-18T09:53:42.456Z,103053.09
2023-04-18T09:56:28.564Z,103048.66
2023-04-18T09:59:52.090Z,103032.25
2023-04-18T10:02:29.534Z,103039.50
2023-04-18T10:05:10.226Z,103038.16
2023-04-18T10:11:43.914Z,103034.25
2023-04-18T10:14:24.434Z,103036.53
2023-04-18T10:17:00.463Z,103035.66
2023-04-18T10:19:36.057Z,103037.88
2023-04-18T10:26:12.534Z,103041.41
2023-04-18T10:29:01.285Z,103045.56
2023-04-18T10:31:53.292Z,103044.25
2023-04-18T10:34:33.492Z,103051.66
2023-04-18T10:37:06.628Z,103049.50
2023-04-18T10:40:13.669Z,103044.09
2023-04-18T10:42:52.011Z,103045.38
2023-04-18T10:45:31.861Z,103045.41
2023-04-18T10:48:30.381Z,103041.06
2023-04-18T10:51:21.073Z,103034.00
2023-04-18T10:54:00.613Z,103037.47
2023-04-18T10:56:33.406Z,103053.00
2023-04-18T10:59:06.375Z,103044.34
2023-04-18T11:01:43.022Z,103048.78
2023-04-18T11:04:17.573Z,103029.81
2023-04-18T11:06:53.344Z,103025.63
2023-04-18T11:09:26.560Z,103048.59
2023-04-18T11:12:06.481Z,103046.28
2023-04-18T11:14:48.398Z,103041.59
2023-04-18T11:17:43.004Z,103043.16
2023-04-18T11:20:15.625Z,103038.09
2023-04-18T11:22:51.008Z,103038.88
2023-04-18T11:25:32.217Z,103032.50
2023-04-18T11:28:05.268Z,103045.00
2023-04-18T11:30:42.679Z,103035.25
2023-04-18T11:33:15.990Z,103050.84
2023-04-18T11:35:48.312Z,103040.25
2023-04-18T11:38:22.207Z,103048.09
2023-04-18T11:40:55.578Z,103046.81
2023-04-18T11:43:28.903Z,103057.75
2023-04-18T11:46:01.986Z,103044.56
2023-04-18T11:48:39.845Z,103041.78
2023-04-18T11:51:40.479Z,103046.94
2023-04-18T11:54:40.715Z,103043.44
2023-04-18T11:57:32.301Z,103034.88
2023-04-18T12:00:07.283Z,103033.66
2023-04-18T12:02:45.941Z,103044.94
2023-04-18T12:05:37.069Z,103034.19
2023-04-18T12:08:19.339Z,103026.97
2023-04-18T12:10:53.898Z,103022.72
2023-04-18T12:13:35.756Z,103022.91
2023-04-18T12:16:08.416Z,103022.13
2023-04-18T12:18:42.316Z,103034.78
2023-04-18T12:21:17.377Z,103029.16
2023-04-18T12:23:49.997Z,103033.00
2023-04-18T12:26:23.955Z,103033.06
2023-04-18T12:28:56.445Z,103017.72
2023-04-18T12:31:29.145Z,103034.44
2023-04-18T12:34:01.620Z,103026.81
2023-04-18T12:36:33.798Z,103021.56
2023-04-18T12:39:06.255Z,103027.78
2023-04-18T12:41:41.600Z,103024.31
2023-04-18T12:44:14.080Z,103023.38
2023-04-18T12:46:46.457Z,103019.78
2023-04-18T12:49:18.636Z,103029.59
2023-04-18T12:51:50.899Z,103040.09
2023-04-18T12:54:23.201Z,103025.94
2023-04-18T12:56:55.771Z,103023.34
2023-04-18T12:59:31.808Z,103017.97
2023-04-18T13:02:04.268Z,103015.81
2023-04-18T13:04:36.744Z,103020.59
2023-04-18T13:07:12.628Z,103011.88
2023-04-18T13:09:48.618Z,103012.81
2023-04-18T13:12:21.188Z,103019.00
2023-04-18T13:14:53.467Z,103012.84
2023-04-18T13:17:26.599Z,103010.19
2023-04-18T13:20:06.399Z,103011.06
2023-04-18T13:22:40.686Z,103015.44
2023-04-18T13:25:13.509Z,103014.50
2023-04-18T13:27:46.355Z,103010.03
2023-04-18T13:30:24.396Z,103002.66
2023-04-18T13:32:57.014Z,103003.84
2023-04-18T13:35:32.757Z,103000.47
2023-04-18T13:38:05.186Z,102997.78
2023-04-18T13:40:39.059Z,103001.25
2023-04-18T13:43:13.372Z,102995.94
2023-04-18T13:45:45.667Z,102995.97
2023-04-18T13:48:18.038Z,102999.59
2023-04-18T13:50:51.363Z,102993.41
2023-04-18T13:53:23.721Z,102998.66
2023-04-18T13:55:56.125Z,102990.72
2023-04-18T13:58:28.780Z,102996.00
2023-04-18T14:01:01.186Z,102992.50
2023-04-18T14:03:35.289Z,102997.84
2023-04-18T14:06:08.544Z,103005.75
2023-04-18T14:08:41.190Z,102999.53
2023-04-18T14:11:13.723Z,103002.19
2023-04-18T14:13:46.306Z,103015.47
2023-04-18T14:16:19.495Z,102996.06
2023-04-18T14:18:51.860Z,102992.53
2023-04-18T14:21:24.824Z,102989.00
2023-04-18T14:23:57.183Z,102987.25
2023-04-18T14:26:29.813Z,102993.44
2023-04-18T14:29:05.414Z,102989.03
2023-04-18T14:31:37.825Z,102990.78
2023-04-18T14:34:10.093Z,102979.31
2023-04-18T14:36:42.260Z,102979.31
2023-04-18T14:39:14.791Z,102987.28
2023-04-18T14:41:47.305Z,102991.59
2023-04-18T14:44:19.793Z,102992.44
2023-04-18T14:46:52.174Z,102986.09
2023-04-18T14:49:24.562Z,102979.19
2023-04-18T14:51:57.213Z,102977.50
2023-04-18T14:54:31.027Z,102977.56
2023-04-18T14:57:08.864Z,102973.13
2023-04-18T14:59:41.154Z,102974.81
2023-04-18T15:02:16.712Z,102962.44
2023-04-18T15:04:57.025Z,102968.63
2023-04-18T15:07:32.422Z,102961.72
2023-04-18T15:10:09.052Z,102969.59
2023-04-18T15:12:42.918Z,102962.56
2023-04-18T15:15:16.804Z,102960.84
2023-04-18T15:17:49.082Z,102958.19
2023-04-18T15:20:23.631Z,102955.53
2023-04-18T15:22:57.540Z,102956.44
2023-04-18T15:25:30.751Z,102962.59
2023-04-18T15:28:03.225Z,102959.06
2023-04-18T15:30:35.503Z,102960.84
2023-04-18T15:33:08.354Z,102962.59
2023-04-18T15:35:46.668Z,102959.84
2023-04-18T15:38:19.340Z,102958.97
2023-04-18T15:40:52.036Z,102957.25
2023-04-18T15:43:24.485Z,102951.06
2023-04-18T15:45:56.869Z,102951.06
2023-04-18T15:48:30.476Z,102965.13
2023-04-18T15:51:03.972Z,102965.13
2023-04-18T15:53:36.540Z,102965.03
2023-04-18T15:56:08.912Z,102967.50
2023-04-18T15:58:41.156Z,102966.56
2023-04-18T16:01:16.170Z,102970.97
2023-04-18T16:03:49.148Z,102975.34
2023-04-18T16:06:24.529Z,102971.81
2023-04-18T16:08:57.158Z,102971.69
2023-04-18T16:11:29.336Z,102966.34
2023-04-18T16:14:01.429Z,102972.59
2023-04-18T16:16:34.565Z,102973.41
2023-04-18T16:19:06.722Z,102969.75
2023-04-18T16:21:41.918Z,102969.59
2023-04-18T16:24:16.580Z,102971.28
2023-04-18T16:26:49.031Z,102969.47
2023-04-18T16:29:21.419Z,102974.81
2023-04-18T16:31:53.868Z,102970.44
2023-04-18T16:34:26.408Z,102979.16
2023-04-18T16:36:58.757Z,102970.19
2023-04-18T16:39:31.331Z,102973.66
2023-04-18T16:42:09.583Z,102980.59
2023-04-18T16:44:41.847Z,102976.19
2023-04-18T16:47:17.470Z,102980.63
2023-04-18T16:49:51.552Z,102976.13
2023-04-18T16:52:24.731Z,102978.75
2023-04-18T16:54:59.392Z,102970.84
2023-04-18T16:57:31.666Z,102975.28
2023-04-18T17:00:05.277Z,102976.22
2023-04-18T17:02:39.798Z,102975.28
2023-04-18T17:05:13.644Z,102976.06
2023-04-18T17:07:46.389Z,102972.50
2023-04-18T17:10:21.738Z,102976.09
2023-04-18T17:12:53.895Z,102983.00
2023-04-18T17:15:27.833Z,102980.47
2023-04-18T17:18:01.464Z,102982.06
2023-04-18T17:20:33.782Z,102992.34
2023-04-18T17:23:05.954Z,102986.16
2023-04-18T17:25:38.254Z,102982.63
2023-04-18T17:28:10.470Z,102985.38
2023-04-18T17:30:42.950Z,102996.72
2023-04-18T17:33:15.158Z,102993.19
2023-04-18T17:35:50.514Z,102995.72
2023-04-18T17:38:24.391Z,102990.31
2023-04-18T17:41:00.359Z,102999.75
2023-04-18T17:43:35.769Z,103001.31
2023-04-18T17:46:08.296Z,102993.44
2023-04-18T17:48:41.547Z,103006.72
2023-04-18T17:51:16.603Z,103003.19
2023-04-18T17:53:55.770Z,103008.41
2023-04-18T17:56:51.895Z,103009.06
2023-04-18T17:59:25.886Z,103011.78
2023-04-18T18:02:01.259Z,103015.97
2023-04-18T18:04:35.175Z,103027.47
2023-04-18T18:07:50.796Z,103023.06
2023-04-18T18:10:24.055Z,103016.88
2023-04-18T18:12:56.741Z,103022.97
2023-04-18T18:15:33.610Z,103025.44
2023-04-18T18:18:10.395Z,103030.53
2023-04-18T18:20:46.107Z,103030.50
2023-04-18T18:24:01.725Z,103027.59
2023-04-18T18:26:35.408Z,103030.09
2023-04-18T18:29:11.370Z,103036.31
2023-04-18T18:31:43.561Z,103032.88
2023-04-18T18:34:15.995Z,103036.44
2023-04-18T18:36:48.185Z,103038.09
2023-04-18T18:39:26.179Z,103039.94
2023-04-18T18:41:58.765Z,103044.28
2023-04-18T18:44:31.164Z,103040.75
2023-04-18T18:47:03.464Z,103039.97
2023-04-18T18:49:36.435Z,103046.97
2023-04-18T18:52:08.688Z,103052.22
2023-04-18T18:54:40.926Z,103044.38
2023-04-18T18:57:13.267Z,103050.53
2023-04-18T18:59:45.490Z,103051.41
2023-04-18T19:02:18.158Z,103052.28
2023-04-18T19:04:50.922Z,103052.31
2023-04-18T19:07:23.400Z,103051.38
2023-04-18T19:09:55.798Z,103056.75
2023-04-18T19:12:28.870Z,103060.06
2023-04-18T19:15:01.972Z,103067.78
2023-04-18T19:17:34.552Z,103067.72
2023-04-18T19:20:11.357Z,103070.88
2023-04-18T19:22:43.620Z,103071.81
2023-04-18T19:25:15.829Z,103073.63
2023-04-18T19:27:48.163Z,103066.56
2023-04-18T19:30:20.601Z,103074.44
2023-04-18T19:32:58.517Z,103078.75
2023-04-18T19:35:31.032Z,103085.66
2023-04-18T19:38:03.865Z,103082.16
2023-04-18T19:40:36.215Z,103084.81
2023-04-18T19:43:08.796Z,103089.13
2023-04-18T19:45:41.319Z,103088.19
2023-04-18T19:48:13.858Z,103087.16
2023-04-18T19:50:46.905Z,103088.81
2023-04-18T19:53:20.720Z,103088.75
2023-04-18T20:02:40.365Z,103090.91
2023-04-18T20:05:13.199Z,103093.25
2023-04-18T20:07:45.736Z,103088.69
2023-04-18T20:10:46.935Z,103093.00
2023-04-18T20:13:22.146Z,103095.56
2023-04-18T20:15:56.316Z,103098.13
2023-04-18T20:18:30.703Z,103093.59
2023-04-18T20:21:05.534Z,103095.31
2023-04-18T20:23:42.342Z,103097.16
2023-04-18T20:26:17.226Z,103095.13
2023-04-18T20:28:49.470Z,103094.16
2023-04-18T20:31:24.435Z,103095.91
2023-04-18T20:33:56.771Z,103102.91
2023-04-18T20:36:37.180Z,103097.66
2023-04-18T20:39:09.578Z,103098.38
2023-04-18T20:41:51.552Z,103101.66
2023-04-18T20:44:25.086Z,103096.31
2023-04-18T20:46:57.536Z,103108.56
2023-04-18T20:49:30.178Z,103100.50
2023-04-18T20:52:22.734Z,103110.03
2023-04-18T20:54:54.953Z,103103.84
2023-04-18T20:58:24.896Z,103097.72
2023-04-18T21:01:01.305Z,103100.25
2023-04-18T21:03:33.863Z,103107.13
2023-04-18T21:06:06.264Z,103106.22
2023-04-18T21:08:39.698Z,103112.09
2023-04-18T21:11:12.622Z,103110.44
2023-04-18T21:13:44.801Z,103106.81
2023-04-18T21:16:17.224Z,103110.16
2023-04-18T21:18:49.686Z,103112.63
2023-04-18T21:21:21.989Z,103117.66
2023-04-18T21:23:54.395Z,103119.22
2023-04-18T21:26:26.897Z,103112.91
2023-04-18T21:29:04.976Z,103119.03
2023-04-18T21:31:37.482Z,103114.59
2023-04-18T21:34:11.442Z,103120.59
2023-04-18T21:36:43.928Z,103122.38
2023-04-18T21:39:17.289Z,103118.94
2023-04-18T21:41:49.738Z,103114.69
2023-04-18T21:44:21.977Z,103114.34
2023-04-18T21:46:54.407Z,103116.94
2023-04-18T21:49:26.744Z,103116.09
2023-04-18T21:51:59.367Z,103111.75
2023-04-18T21:54:31.726Z,103117.94
2023-04-18T21:57:06.118Z,103114.47
2023-04-18T21:59:38.254Z,103115.50
2023-04-18T22:02:10.517Z,103119.19
2023-04-18T22:04:43.044Z,103120.75
2023-04-18T22:07:19.110Z,103117.25
2023-04-18T22:09:51.621Z,103115.38
2023-04-18T22:12:24.725Z,103122.34
2023-04-18T22:14:57.114Z,103119.50
2023-04-18T22:17:30.232Z,103123.66
2023-04-18T22:20:06.953Z,103119.03
2023-04-18T22:22:43.468Z,103124.16
2023-04-18T22:25:17.900Z,103125.91
2023-04-18T22:27:52.473Z,103131.13
2023-04-18T22:30:24.828Z,103132.00
2023-04-18T22:32:58.575Z,103135.34
2023-04-18T22:35:30.988Z,103123.78
2023-04-18T22:38:03.382Z,103132.22
2023-04-18T22:40:35.563Z,103132.13
2023-04-18T22:43:08.015Z,103128.63
2023-04-18T22:45:40.583Z,103131.34
2023-04-18T22:48:13.792Z,103127.91
2023-04-18T22:50:46.581Z,103131.19
2023-04-18T22:53:18.790Z,103124.09
2023-04-18T22:55:51.315Z,103141.41
2023-04-18T22:58:23.651Z,103132.34
2023-04-18T23:00:55.998Z,103127.13
2023-04-18T23:03:28.281Z,103138.47
2023-04-18T23:06:01.379Z,103134.06
2023-04-18T23:08:33.551Z,103130.28
2023-04-18T23:11:05.757Z,103136.16
2023-04-18T23:13:37.903Z,103134.19
2023-04-18T23:16:10.084Z,103133.41
2023-04-18T23:18:42.203Z,103134.09
2023-04-18T23:21:25.483Z,103132.13
2023-04-18T23:23:57.619Z,103135.59
2023-04-18T23:26:29.738Z,103134.69
2023-04-18T23:29:01.862Z,103139.03
2023-04-18T23:31:34.018Z,103146.00
2023-04-18T23:34:06.137Z,103142.41
2023-04-18T23:36:38.270Z,103144.03
2023-04-18T23:39:10.395Z,103145.59
2023-04-18T23:41:42.513Z,103149.97
2023-04-18T23:44:14.851Z,103145.59
2023-04-18T23:46:48.080Z,103146.44
2023-04-18T23:49:20.208Z,103148.91
2023-04-18T23:51:52.256Z,103154.13
2023-04-18T23:54:24.349Z,103152.41
2023-04-18T23:56:57.298Z,103144.53
2023-04-18T23:59:29.424Z,103144.38
